Time;durP1;ratioP1;P1;durP2;ratioP2;P2;SDS_P1;SDS_P2;PMS_P1;PMS_P2;Temp;Humidity;BMP_temperature;BMP_pressure;BME280_temperature;BME280_humidity;BME280_pressure;Samples;Min_cycle;Max_cycle;Signal;HPM_P1;HPM_P2
2022/01/02 00:01:03;;;;;;;50.63;29.45;;;;;;;11.67;78.01;101233.94;4997741;28;20110;-78
2022/01/02 00:03:34;;;;;;;47.38;30.48;;;;;;;11.66;78.57;101235.78;4997305;28;20050;-77
2022/01/02 00:06:01;;;;;;;48.78;29.52;;;;;;;11.62;78.01;101234.28;4997851;28;20386;-77
2022/01/02 00:08:30;;;;;;;55.03;32.33;;;;;;;11.67;77.75;101233.94;4997743;28;20032;-78
2022/01/02 00:10:58;;;;;;;47.17;28.33;;;;;;;11.72;78.45;101240.72;4997926;28;20519;-78
2022/01/02 00:13:35;;;;;;;46.97;28.40;;;;;;;11.74;78.29;101241.47;4998008;28;20022;-77
2022/01/02 00:16:07;;;;;;;47.50;27.25;;;;;;;11.71;78.15;101233.63;4997704;28;20030;-78
2022/01/02 00:18:35;;;;;;;41.33;27.92;;;;;;;11.74;78.12;101241.47;4998088;28;20030;-78
2022/01/02 00:21:07;;;;;;;42.72;26.95;;;;;;;11.71;77.96;101246.25;4998453;28;20457;-78
2022/01/02 00:23:48;;;;;;;41.25;27.05;;;;;;;11.71;77.86;101252.47;4999564;28;20030;-79
2022/01/02 00:26:17;;;;;;;47.70;27.58;;;;;;;11.71;78.36;101260.56;4982910;28;20031;-78
2022/01/02 00:28:55;;;;;;;40.22;25.42;;;;;;;11.75;78.36;101262.06;5004293;28;20028;-78
2022/01/02 00:31:23;;;;;;;40.33;25.92;;;;;;;11.75;77.72;101248.59;5001448;28;20056;-79
2022/01/02 00:33:49;;;;;;;39.60;26.55;;;;;;;11.72;77.83;101251.50;5003521;28;20026;-78
2022/01/02 00:36:15;;;;;;;33.65;24.35;;;;;;;11.71;77.91;101247.09;4997215;28;20092;-78
2022/01/02 00:38:41;;;;;;;43.17;27.92;;;;;;;11.72;77.28;101242.56;4997348;28;20023;-78
2022/01/02 00:41:07;;;;;;;43.75;26.55;;;;;;;11.76;77.51;101246.75;4996976;28;20373;-79
2022/01/02 00:43:45;;;;;;;38.53;27.17;;;;;;;11.78;77.72;101250.19;4997628;28;20026;-78
2022/01/02 00:46:13;;;;;;;40.97;25.73;;;;;;;11.68;77.63;101249.16;4997190;28;20026;-78
2022/01/02 00:48:42;;;;;;;43.60;24.20;;;;;;;11.75;77.58;101256.66;4997595;28;20050;-78
2022/01/02 00:51:49;;;;;;;40.78;22.20;;;;;;;11.72;77.72;101256.91;4997976;28;20472;-78
2022/01/02 00:54:17;;;;;;;41.40;23.80;;;;;;;11.70;77.54;101266.94;4996808;28;20032;-78
2022/01/02 00:56:45;;;;;;;34.80;23.17;;;;;;;11.71;77.64;101260.56;4996475;28;20093;-78
2022/01/02 00:59:29;;;;;;;35.92;22.67;;;;;;;11.67;77.35;101264.47;4996827;28;20396;-79
2022/01/02 01:02:03;;;;;;;49.97;24.60;;;;;;;11.62;77.22;101276.56;4996392;28;20045;-77
2022/01/02 01:04:33;;;;;;;37.47;24.90;;;;;;;11.65;77.86;101277.16;4996757;28;20425;-79
2022/01/02 01:07:04;;;;;;;39.78;23.83;;;;;;;11.62;77.25;101276.56;4996476;28;20023;-77
2022/01/02 01:09:30;;;;;;;34.22;22.42;;;;;;;11.67;77.54;101287.84;4995368;28;20057;-78
2022/01/02 01:12:01;;;;;;;39.22;24.15;;;;;;;11.62;77.53;101290.88;4996123;28;20074;-77
2022/01/02 01:14:28;;;;;;;34.90;21.98;;;;;;;11.66;77.85;101294.19;4995946;28;20026;-77
2022/01/02 01:16:54;;;;;;;39.42;22.55;;;;;;;11.63;77.83;101289.91;4996218;28;20029;-78
2022/01/02 01:19:20;;;;;;;36.58;23.15;;;;;;;11.74;77.43;101291.84;4996373;28;20022;-77
2022/01/02 01:21:46;;;;;;;33.08;22.38;;;;;;;11.78;76.80;101279.81;4995417;28;20437;-78
2022/01/02 01:24:12;;;;;;;32.83;21.98;;;;;;;11.75;77.11;101278.22;4996182;28;20487;-78
2022/01/02 01:26:39;;;;;;;34.78;22.02;;;;;;;11.79;76.61;101285.13;4978755;28;20114;-78
2022/01/02 01:29:05;;;;;;;32.28;21.98;;;;;;;11.74;76.12;101276.50;4995491;28;20030;-78
2022/01/02 01:31:30;;;;;;;34.83;21.98;;;;;;;11.75;75.68;101286.31;4995500;28;20101;-78
2022/01/02 01:33:56;;;;;;;38.22;21.88;;;;;;;11.75;75.79;101282.75;4995733;28;20034;-78
2022/01/02 01:36:21;;;;;;;36.78;21.13;;;;;;;11.72;75.88;101293.75;4978575;28;20489;-78
2022/01/02 01:38:47;;;;;;;32.75;22.45;;;;;;;11.70;76.23;101293.91;4996119;28;20401;-78
2022/01/02 01:41:28;;;;;;;40.72;24.52;;;;;;;11.65;75.60;101298.72;4996308;28;20389;-78
2022/01/02 01:44:07;;;;;;;35.78;21.95;;;;;;;11.67;75.76;101286.00;4997065;28;20022;-78
2022/01/02 01:46:34;;;;;;;34.63;23.20;;;;;;;11.71;76.04;101292.91;4997552;28;20157;-78
2022/01/02 01:48:59;;;;;;;36.75;23.30;;;;;;;11.68;76.53;101290.41;5000466;28;20022;-78
2022/01/02 01:51:25;;;;;;;36.13;22.42;;;;;;;11.71;75.80;101292.91;5002428;28;20057;-77
2022/01/02 01:53:51;;;;;;;35.88;23.83;;;;;;;11.66;75.57;101292.38;4988602;28;20125;-78
2022/01/02 01:56:20;;;;;;;36.67;22.63;;;;;;;11.66;76.20;101292.38;5001161;28;20412;-79
2022/01/02 01:58:45;;;;;;;40.45;22.50;;;;;;;11.63;75.83;101284.50;5001931;28;20037;-78
2022/01/02 02:01:11;;;;;;;36.97;23.98;;;;;;;11.59;76.23;101288.41;5001320;28;20022;-78
2022/01/02 02:03:38;;;;;;;38.55;23.90;;;;;;;11.59;75.81;101292.97;5004371;28;20032;-77
2022/01/02 02:06:03;;;;;;;36.13;22.73;;;;;;;11.58;76.28;101286.69;4981286;28;20034;-77
2022/01/02 02:08:29;;;;;;;35.70;23.25;;;;;;;11.58;75.77;101302.00;4987436;28;20088;-78
2022/01/02 02:10:57;;;;;;;33.42;22.25;;;;;;;11.53;76.10;101291.56;4999227;28;20057;-78
2022/01/02 02:13:23;;;;;;;31.23;22.10;;;;;;;11.47;76.09;101300.09;4995978;28;20022;-78
2022/01/02 02:15:51;;;;;;;32.60;22.45;;;;;;;11.32;76.52;101295.84;4995819;28;20037;-77
2022/01/02 02:18:17;;;;;;;36.00;22.38;;;;;;;11.35;76.45;101306.41;4995273;28;20026;-77
2022/01/02 02:20:42;;;;;;;46.20;23.38;;;;;;;11.32;77.14;101301.22;4996124;28;20018;-78
2022/01/02 02:23:11;;;;;;;32.95;21.08;;;;;;;11.30;77.00;101308.56;4997872;28;20022;-77
2022/01/02 02:25:38;;;;;;;35.75;21.95;;;;;;;11.33;76.59;101311.03;4994940;28;20049;-77
2022/01/02 02:28:08;;;;;;;34.63;21.65;;;;;;;11.35;76.82;101306.41;4976957;28;20117;-77
2022/01/02 02:30:36;;;;;;;33.42;22.67;;;;;;;11.34;76.41;101302.00;4995245;28;20025;-77
2022/01/02 02:33:04;;;;;;;31.15;21.10;;;;;;;11.28;76.77;101315.91;4994980;28;20026;-77
2022/01/02 02:35:33;;;;;;;35.13;20.65;;;;;;;11.26;77.08;101320.53;4995106;28;20022;-78
2022/01/02 02:37:59;;;;;;;30.42;20.63;;;;;;;11.24;76.63;101320.66;4995036;28;20022;-77
2022/01/02 02:40:28;;;;;;;31.30;20.90;;;;;;;11.17;77.10;101315.81;4995527;28;20041;-77
2022/01/02 02:43:00;;;;;;;33.53;21.92;;;;;;;11.19;77.19;101321.97;4995311;28;20037;-78
2022/01/02 02:51:01;;;;;;;37.40;23.00;;;;;;;11.23;77.65;101337.78;4993734;28;20519;-76
2022/01/02 02:53:27;;;;;;;36.20;22.73;;;;;;;11.31;77.18;101331.84;4994457;28;20030;-78
2022/01/02 02:55:57;;;;;;;32.40;21.70;;;;;;;11.33;77.02;101330.75;4994712;28;20452;-77
2022/01/02 03:01:00;;;;;;;28.42;19.00;;;;;;;11.52;76.11;101345.56;4994705;28;20033;-77
2022/01/02 03:03:26;;;;;;;27.52;17.80;;;;;;;11.49;76.11;101343.97;4994811;28;20037;-78
2022/01/02 03:05:52;;;;;;;23.85;16.67;;;;;;;11.51;76.31;101344.69;4995116;28;20452;-78
2022/01/02 03:08:17;;;;;;;24.40;16.05;;;;;;;11.56;76.33;101353.28;4995142;28;20041;-78
2022/01/02 03:10:43;;;;;;;27.00;18.25;;;;;;;11.62;75.71;101358.22;4977466;28;20096;-77
2022/01/02 03:13:08;;;;;;;29.15;18.88;;;;;;;11.69;75.86;101378.38;4995049;28;20037;-77
2022/01/02 03:15:34;;;;;;;29.40;18.90;;;;;;;11.72;75.85;101383.56;4994546;28;20037;-77
2022/01/02 03:17:59;;;;;;;31.00;19.23;;;;;;;11.77;75.68;101389.47;4994485;28;20022;-78
2022/01/02 03:20:25;;;;;;;29.63;18.83;;;;;;;11.81;75.26;101379.31;4994496;28;20077;-78
2022/01/02 03:22:50;;;;;;;35.08;18.05;;;;;;;11.84;74.91;101385.34;4994282;28;20116;-77
2022/01/02 03:25:16;;;;;;;32.42;18.70;;;;;;;11.91;74.67;101386.63;4994793;28;20030;-78
2022/01/02 03:27:43;;;;;;;27.83;17.13;;;;;;;11.92;74.46;101387.47;4993882;28;20050;-78
2022/01/02 03:30:10;;;;;;;27.75;17.92;;;;;;;11.86;74.60;101396.84;4994514;28;20026;-78
2022/01/02 03:32:35;;;;;;;27.55;16.70;;;;;;;11.83;74.33;101382.78;4994115;28;20031;-78
2022/01/02 03:35:01;;;;;;;23.60;16.40;;;;;;;11.87;74.93;101395.03;4998244;28;20053;-77
2022/01/02 03:37:28;;;;;;;25.35;17.33;;;;;;;11.88;74.47;101391.38;4998508;28;20044;-79
2022/01/02 03:39:57;;;;;;;27.25;17.40;;;;;;;11.90;74.90;101386.72;4998119;28;20030;-77
2022/01/02 03:42:22;;;;;;;27.83;16.83;;;;;;;11.88;74.79;101392.22;4982320;28;20397;-78
2022/01/02 03:44:48;;;;;;;23.50;16.52;;;;;;;11.95;74.84;101388.13;5001436;28;20030;-78
2022/01/02 03:47:13;;;;;;;27.70;17.52;;;;;;;11.94;74.42;101394.47;4998157;28;20026;-78
2022/01/02 03:49:39;;;;;;;24.15;16.45;;;;;;;11.99;74.19;101394.97;4997377;28;20066;-77
2022/01/02 03:52:04;;;;;;;26.25;17.25;;;;;;;12.05;74.13;101403.59;4997712;28;20034;-77
2022/01/02 03:54:30;;;;;;;26.20;17.80;;;;;;;12.05;74.54;101398.22;4998158;28;20124;-77
2022/01/02 03:56:55;;;;;;;25.55;16.02;;;;;;;11.94;74.09;101389.06;4997268;28;20078;-77
2022/01/02 03:59:21;;;;;;;22.95;16.52;;;;;;;12.09;73.71;101405.06;4997826;28;20061;-78
2022/01/02 04:01:46;;;;;;;26.10;16.98;;;;;;;12.12;73.69;101416.50;4997139;28;20030;-78
2022/01/02 04:04:12;;;;;;;24.67;17.48;;;;;;;12.14;74.10;101413.69;4997706;28;20459;-78
2022/01/02 04:06:37;;;;;;;27.73;16.35;;;;;;;12.21;73.94;101409.53;4997464;28;20038;-77
2022/01/02 04:09:03;;;;;;;24.88;16.77;;;;;;;12.24;73.46;101428.19;4996969;28;20030;-77
2022/01/02 04:11:28;;;;;;;33.40;20.33;;;;;;;12.29;73.44;101420.63;4997448;28;20052;-77
2022/01/02 04:13:54;;;;;;;25.75;16.45;;;;;;;12.32;73.38;101421.22;4997248;28;20370;-77
2022/01/02 04:16:19;;;;;;;26.08;17.48;;;;;;;12.32;73.00;101417.69;4997012;28;20058;-77
2022/01/02 04:18:45;;;;;;;29.95;18.75;;;;;;;12.34;73.24;101422.00;4997811;28;20030;-77
2022/01/02 04:21:10;;;;;;;31.92;19.13;;;;;;;12.38;73.04;101428.84;4996997;28;20404;-77
2022/01/02 04:23:37;;;;;;;24.20;17.15;;;;;;;12.34;72.81;101432.78;4996869;28;20089;-77
2022/01/02 04:26:04;;;;;;;24.55;16.13;;;;;;;12.39;73.20;101445.91;4997140;28;20030;-77
2022/01/02 04:28:29;;;;;;;26.42;17.33;;;;;;;12.36;72.63;101452.41;4996546;28;20038;-77
2022/01/02 04:30:55;;;;;;;40.03;21.02;;;;;;;12.36;73.20;101451.53;4996972;28;20026;-76
2022/01/02 04:33:20;;;;;;;117.13;51.58;;;;;;;12.39;73.09;101459.38;4997186;28;20037;-76
2022/01/02 04:35:46;;;;;;;56.08;27.30;;;;;;;12.40;72.35;101453.03;4996839;28;20030;-77
2022/01/02 04:38:13;;;;;;;51.67;26.70;;;;;;;12.43;72.37;101468.97;4996814;28;20033;-77
2022/01/02 04:40:39;;;;;;;32.63;18.67;;;;;;;12.45;72.23;101456.22;4996661;28;20530;-77
2022/01/02 04:43:04;;;;;;;31.60;19.55;;;;;;;12.47;72.32;101473.19;4996725;28;20033;-76
2022/01/02 04:45:29;;;;;;;29.98;18.90;;;;;;;12.48;72.21;101472.19;4996241;28;20048;-78
2022/01/02 04:47:55;;;;;;;24.40;16.58;;;;;;;12.47;71.82;101463.25;4996445;28;20027;-77
2022/01/02 04:50:20;;;;;;;26.10;17.40;;;;;;;12.48;71.58;101459.56;4996074;28;20054;-77
2022/01/02 04:52:46;;;;;;;33.03;16.98;;;;;;;12.48;71.59;101467.66;4996753;28;20113;-77
2022/01/02 04:55:11;;;;;;;24.88;15.98;;;;;;;12.51;71.37;101477.34;4996701;28;20118;-77
2022/01/02 04:57:37;;;;;;;20.48;14.68;;;;;;;12.44;71.03;101468.00;4996402;28;20030;-77
2022/01/02 05:00:04;;;;;;;24.65;15.38;;;;;;;12.50;70.95;101479.22;4996189;28;20026;-77
2022/01/02 05:02:29;;;;;;;24.75;15.20;;;;;;;12.44;70.79;101476.97;4996340;28;20084;-76
2022/01/02 05:04:55;;;;;;;24.98;15.45;;;;;;;12.38;71.22;101473.88;4995992;28;20461;-77
2022/01/02 05:07:20;;;;;;;24.58;15.68;;;;;;;12.43;71.26;101479.78;4996601;28;20057;-77
2022/01/02 05:09:46;;;;;;;24.55;16.13;;;;;;;12.49;71.03;101473.91;4996685;28;20413;-77
2022/01/02 05:12:11;;;;;;;24.73;16.02;;;;;;;12.51;70.83;101480.91;4978521;28;20022;-77
2022/01/02 05:14:37;;;;;;;23.90;15.98;;;;;;;12.50;70.70;101471.13;4996321;28;20029;-78
2022/01/02 05:17:02;;;;;;;26.42;14.93;;;;;;;12.47;70.47;101481.28;4996032;28;20026;-78
2022/01/02 05:19:28;;;;;;;23.15;14.95;;;;;;;12.53;70.54;101483.50;4999643;28;20439;-78
2022/01/02 05:21:53;;;;;;;23.35;15.18;;;;;;;12.52;70.58;101485.34;4995745;28;20353;-77
2022/01/02 05:24:19;;;;;;;31.42;15.10;;;;;;;12.54;70.22;101498.69;4995280;28;20034;-77
2022/01/02 05:26:44;;;;;;;24.08;15.82;;;;;;;12.51;70.27;101493.53;4995491;28;20457;-76
2022/01/02 05:29:10;;;;;;;25.05;14.30;;;;;;;12.46;70.51;101502.00;4996125;28;20571;-77
2022/01/02 05:31:35;;;;;;;23.88;14.23;;;;;;;12.50;70.51;101497.22;4995520;28;20026;-77
2022/01/02 05:34:01;;;;;;;21.15;15.02;;;;;;;12.44;70.02;101493.16;4995325;28;20050;-79
2022/01/02 05:36:26;;;;;;;22.13;15.45;;;;;;;12.45;70.51;101496.69;4995806;28;20030;-78
2022/01/02 05:38:52;;;;;;;31.17;16.98;;;;;;;12.29;70.23;101509.63;4995588;28;20088;-76
2022/01/02 05:41:18;;;;;;;29.48;19.52;;;;;;;12.28;70.57;101510.59;4995117;28;20022;-77
2022/01/02 05:43:43;;;;;;;34.42;20.45;;;;;;;12.26;70.51;101517.94;4995448;28;20513;-77
2022/01/02 05:46:09;;;;;;;31.75;18.77;;;;;;;12.23;70.08;101521.72;4995433;28;20125;-78
2022/01/02 05:48:36;;;;;;;31.13;18.75;;;;;;;12.20;70.66;101531.91;4995487;28;20034;-77
2022/01/02 05:51:01;;;;;;;25.27;15.77;;;;;;;12.17;70.49;101526.72;4995507;28;20093;-77
2022/01/02 05:53:28;;;;;;;35.60;16.73;;;;;;;12.11;70.87;101530.72;4994545;28;20026;-77
2022/01/02 05:55:54;;;;;;;27.25;17.25;;;;;;;12.04;71.30;101520.50;4993625;28;20022;-76
2022/01/02 05:58:19;;;;;;;25.35;16.23;;;;;;;11.91;71.76;101526.78;4993962;28;20137;-77
2022/01/02 06:00:45;;;;;;;27.23;15.85;;;;;;;11.90;71.92;101527.75;4991357;28;20664;-80
2022/01/02 06:03:10;;;;;;;24.30;15.15;;;;;;;11.97;71.65;101530.88;4994374;28;20026;-77
2022/01/02 06:05:36;;;;;;;29.85;17.58;;;;;;;11.96;71.90;101524.59;4994529;28;20026;-77
2022/01/02 06:08:02;;;;;;;25.88;17.42;;;;;;;12.00;71.67;101541.44;4994266;28;20032;-77
2022/01/02 06:10:27;;;;;;;31.83;18.17;;;;;;;11.89;71.92;101552.16;4994719;28;20093;-77
2022/01/02 06:12:53;;;;;;;26.42;17.15;;;;;;;11.76;71.86;101544.06;4995176;28;20448;-76
2022/01/02 06:15:18;;;;;;;23.45;15.98;;;;;;;11.75;72.22;101542.34;5000976;28;20548;-77
2022/01/02 06:17:45;;;;;;;30.48;16.00;;;;;;;11.82;72.29;101557.09;4994157;28;20022;-77
2022/01/02 06:20:10;;;;;;;29.55;19.33;;;;;;;11.78;72.45;101552.03;4994966;28;20034;-78
2022/01/02 06:22:36;;;;;;;29.13;20.13;;;;;;;11.71;72.25;101556.16;4977575;28;20034;-79
2022/01/02 06:25:02;;;;;;;28.08;18.92;;;;;;;11.71;72.66;101548.91;4996166;28;20029;-79
2022/01/02 06:27:28;;;;;;;29.23;16.95;;;;;;;11.86;72.31;101577.47;4995587;28;20042;-77
2022/01/02 06:29:53;;;;;;;25.15;16.75;;;;;;;11.90;72.50;101583.50;4994634;28;20397;-76
2022/01/02 06:32:19;;;;;;;26.05;16.73;;;;;;;11.93;71.91;101578.75;4994589;28;20053;-77
2022/01/02 06:34:46;;;;;;;28.88;16.75;;;;;;;11.96;72.29;101580.34;4996064;28;20092;-79
2022/01/02 06:37:12;;;;;;;23.73;15.10;;;;;;;11.99;72.57;101591.78;4977169;28;20034;-79
2022/01/02 06:39:37;;;;;;;34.45;18.23;;;;;;;12.02;72.13;101604.19;4994317;28;20467;-77
2022/01/02 06:42:03;;;;;;;32.28;17.83;;;;;;;12.08;71.86;101608.31;4993242;28;20030;-76
2022/01/02 06:44:29;;;;;;;34.05;19.13;;;;;;;12.14;72.04;101605.16;4993651;28;20033;-76
2022/01/02 06:46:54;;;;;;;29.50;18.80;;;;;;;12.19;71.62;101613.78;4993793;28;20030;-79
2022/01/02 06:49:20;;;;;;;35.45;18.65;;;;;;;12.20;71.57;101608.25;4994083;28;20100;-75
2022/01/02 06:51:45;;;;;;;25.60;17.83;;;;;;;12.26;71.10;101623.16;4993169;28;20061;-78
2022/01/02 06:54:11;;;;;;;24.60;15.90;;;;;;;12.23;70.44;101620.69;5009050;28;20358;-79
2022/01/02 06:56:36;;;;;;;31.00;16.70;;;;;;;12.23;70.36;101626.06;4995891;28;20503;-78
2022/01/02 06:59:02;;;;;;;23.38;15.95;;;;;;;12.19;70.43;101621.84;4994071;28;20020;-78
2022/01/02 07:01:27;;;;;;;26.95;16.25;;;;;;;12.24;70.50;101615.16;4994176;28;20448;-79
2022/01/02 07:03:53;;;;;;;22.65;14.90;;;;;;;12.23;70.29;101612.59;4993689;28;20022;-79
2022/01/02 07:06:18;;;;;;;25.15;16.60;;;;;;;12.14;69.75;101614.09;4994433;28;20035;-79
2022/01/02 07:08:43;;;;;;;27.67;17.08;;;;;;;12.09;68.90;101623.50;4990552;28;20357;-77
2022/01/02 07:11:11;;;;;;;23.60;15.95;;;;;;;12.04;68.89;101618.44;4993660;28;20388;-78
2022/01/02 07:13:38;;;;;;;25.55;14.32;;;;;;;12.02;68.69;101622.22;4993711;28;20037;-77
2022/01/02 07:16:04;;;;;;;23.60;14.85;;;;;;;11.99;68.08;101632.22;4993278;28;20054;-77
2022/01/02 07:18:29;;;;;;;35.38;13.63;;;;;;;11.96;67.93;101623.50;4993835;28;20019;-85
2022/01/02 07:20:55;;;;;;;20.05;11.65;;;;;;;12.08;68.09;101630.72;4993734;28;20042;-79
2022/01/02 07:23:20;;;;;;;29.98;12.35;;;;;;;12.10;67.71;101628.78;4993641;28;20029;-79
2022/01/02 07:25:45;;;;;;;19.42;12.00;;;;;;;12.05;67.09;101619.31;4994086;28;20069;-77
2022/01/02 07:28:11;;;;;;;18.17;10.25;;;;;;;11.99;66.42;101643.03;4976226;28;20098;-79
2022/01/02 07:30:36;;;;;;;23.20;12.13;;;;;;;11.93;66.52;101632.66;4994362;28;20022;-80
2022/01/02 07:33:02;;;;;;;21.65;10.05;;;;;;;11.99;65.99;101647.53;4994126;28;20027;-77
2022/01/02 07:35:31;;;;;;;17.70;9.90;;;;;;;11.87;65.39;101646.59;4993508;28;20018;-77
2022/01/02 07:37:57;;;;;;;24.33;10.70;;;;;;;11.81;64.34;101652.41;4993096;28;20026;-80
2022/01/02 07:40:24;;;;;;;21.60;9.35;;;;;;;11.73;63.72;101657.47;4994271;28;20117;-85
2022/01/02 07:42:49;;;;;;;14.35;7.40;;;;;;;11.69;62.10;101666.72;4993963;28;20045;-78
2022/01/02 07:45:16;;;;;;;12.38;6.70;;;;;;;11.60;61.70;101656.56;4994027;28;20563;-79
2022/01/02 07:47:42;;;;;;;20.77;7.20;;;;;;;11.59;61.74;101659.38;4993755;28;20440;-77
2022/01/02 07:50:07;;;;;;;8.95;5.53;;;;;;;11.43;61.32;101667.66;4992709;28;20022;-75
2022/01/02 07:52:33;;;;;;;16.02;6.28;;;;;;;11.36;61.81;101661.81;4992874;28;20042;-74
2022/01/02 07:54:58;;;;;;;5.38;3.80;;;;;;;11.29;61.26;101654.25;4993967;28;20033;-76
2022/01/02 07:57:24;;;;;;;8.27;4.53;;;;;;;11.33;60.68;101658.47;4995533;28;20029;-77
2022/01/02 07:59:50;;;;;;;6.75;4.38;;;;;;;11.30;59.63;101664.94;4994141;28;20337;-75
2022/01/02 08:02:15;;;;;;;17.08;4.72;;;;;;;11.29;58.42;101667.72;4993900;28;20477;-75
2022/01/02 08:04:40;;;;;;;8.27;3.70;;;;;;;11.34;57.40;101670.97;4994632;28;20526;-77
2022/01/02 08:07:06;;;;;;;3.08;2.25;;;;;;;11.36;56.90;101669.03;4996357;28;20039;-77
2022/01/02 08:09:32;;;;;;;8.77;2.60;;;;;;;11.37;56.44;101677.03;4993587;28;20038;-78
2022/01/02 08:11:57;;;;;;;21.13;3.20;;;;;;;11.36;55.90;101671.72;4992584;28;20031;-78
2022/01/02 08:14:22;;;;;;;5.90;2.88;;;;;;;11.43;55.10;101683.81;4993136;28;20022;-77
2022/01/02 08:16:48;;;;;;;4.22;1.85;;;;;;;11.42;55.28;101679.38;4992484;28;20508;-78
2022/01/02 08:19:14;;;;;;;13.98;2.80;;;;;;;11.51;54.60;101689.53;4993478;28;20061;-77
2022/01/02 08:21:39;;;;;;;13.15;4.32;;;;;;;11.46;54.34;101691.69;4996082;28;20029;-77
2022/01/02 08:24:05;;;;;;;15.80;2.55;;;;;;;11.48;54.37;101696.00;4996450;28;20045;-77
2022/01/02 08:26:31;;;;;;;3.90;2.50;;;;;;;11.53;54.92;101706.44;4978675;28;20054;-76
2022/01/02 08:29:00;;;;;;;6.57;2.75;;;;;;;11.54;54.41;101697.41;4996867;28;20022;-77
2022/01/02 08:31:29;;;;;;;3.90;2.15;;;;;;;11.64;54.27;101706.59;4996534;28;20057;-78
2022/01/02 08:33:56;;;;;;;13.30;2.35;;;;;;;11.69;53.92;101711.66;4996565;28;20050;-77
2022/01/02 08:36:21;;;;;;;8.25;2.63;;;;;;;11.74;53.89;101701.47;5006828;28;20023;-78
2022/01/02 08:38:47;;;;;;;3.33;2.35;;;;;;;11.85;53.38;101715.94;4998672;28;20022;-77
2022/01/02 08:41:14;;;;;;;4.05;2.30;;;;;;;11.87;52.95;101721.19;4996162;28;20022;-77
2022/01/02 08:43:41;;;;;;;3.95;2.13;;;;;;;11.92;52.65;101717.25;4995673;28;20105;-77
2022/01/02 08:46:06;;;;;;;20.92;2.78;;;;;;;11.99;52.52;101726.59;4995682;28;20033;-77
2022/01/02 08:48:32;;;;;;;9.82;2.30;;;;;;;11.83;51.89;101730.50;4995225;28;20404;-77
2022/01/02 08:50:58;;;;;;;9.68;2.80;;;;;;;11.81;53.08;101722.50;4995321;28;20038;-78
2022/01/02 08:53:23;;;;;;;3.63;2.05;;;;;;;11.77;53.22;101720.97;4995749;28;20037;-77
2022/01/02 08:55:49;;;;;;;13.15;2.50;;;;;;;11.92;52.92;101732.56;4996405;28;20026;-77
2022/01/02 08:58:15;;;;;;;3.85;2.33;;;;;;;12.07;53.24;101736.88;4979892;28;20519;-78
2022/01/02 09:00:40;;;;;;;5.65;3.33;;;;;;;12.15;52.70;101733.63;4980359;28;20026;-78
2022/01/02 09:03:06;;;;;;;23.40;3.63;;;;;;;12.31;52.99;101745.06;4995891;28;20414;-76
2022/01/02 09:05:33;;;;;;;15.23;3.40;;;;;;;12.15;52.42;101720.13;4995834;28;20476;-76
2022/01/02 09:07:58;;;;;;;16.77;3.40;;;;;;;12.21;52.78;101742.16;4995174;28;20046;-77
2022/01/02 09:10:24;;;;;;;5.95;3.67;;;;;;;12.33;52.26;101738.56;4994927;28;20128;-78
2022/01/02 09:12:49;;;;;;;20.90;4.65;;;;;;;12.33;52.34;101732.31;4995806;28;20018;-76
2022/01/02 09:15:15;;;;;;;7.85;2.85;;;;;;;12.40;51.73;101730.91;4994714;28;20117;-80
2022/01/02 09:17:41;;;;;;;28.23;4.45;;;;;;;12.52;51.49;101733.59;4996006;28;20080;-77
2022/01/02 09:20:08;;;;;;;7.60;2.42;;;;;;;12.52;50.94;101739.00;4995973;28;20026;-79
2022/01/02 09:22:37;;;;;;;12.52;3.25;;;;;;;12.55;51.64;101717.19;4995654;28;20097;-76
2022/01/02 09:25:03;;;;;;;15.93;4.53;;;;;;;12.68;51.34;101721.69;4994639;28;20018;-74
2022/01/02 09:27:29;;;;;;;10.75;3.35;;;;;;;12.78;51.53;101726.28;4994027;28;20037;-75
2022/01/02 09:29:54;;;;;;;12.63;4.75;;;;;;;12.88;51.25;101724.66;4994167;28;20026;-74
2022/01/02 09:32:19;;;;;;;12.82;3.95;;;;;;;12.99;51.56;101727.44;4993629;28;20018;-74
2022/01/02 09:34:45;;;;;;;5.40;3.08;;;;;;;13.06;51.01;101707.09;4994808;28;20485;-74
2022/01/02 09:37:11;;;;;;;10.93;2.80;;;;;;;13.25;50.60;101727.34;4994387;28;20026;-75
2022/01/02 09:39:37;;;;;;;6.65;2.65;;;;;;;13.21;50.11;101725.88;4993020;28;20037;-75
2022/01/02 09:42:04;;;;;;;11.32;2.80;;;;;;;13.33;50.37;101720.38;4993728;28;20029;-75
2022/01/02 09:44:31;;;;;;;19.33;3.75;;;;;;;13.46;50.23;101728.44;4994661;28;20353;-75
2022/01/02 09:46:57;;;;;;;17.40;5.72;;;;;;;13.45;50.11;101713.22;4994390;28;20492;-74
2022/01/02 09:49:23;;;;;;;34.10;11.60;;;;;;;13.52;49.61;101709.03;4993866;28;20022;-74
2022/01/02 09:51:48;;;;;;;28.27;12.57;;;;;;;13.59;49.46;101715.72;4992512;28;20049;-74
2022/01/02 09:54:14;;;;;;;8.25;4.03;;;;;;;13.60;49.10;101707.50;4992841;28;20534;-74
2022/01/02 09:56:39;;;;;;;11.68;3.70;;;;;;;13.56;49.07;101711.41;4993161;28;20056;-74
2022/01/02 09:59:05;;;;;;;7.97;3.83;;;;;;;13.68;49.72;101712.31;4993271;28;20121;-74
2022/01/02 10:01:32;;;;;;;27.15;3.47;;;;;;;13.78;49.42;101715.16;4993093;28;20026;-75
2022/01/02 10:03:58;;;;;;;4.63;2.00;;;;;;;13.82;48.80;101703.13;4993113;28;20436;-75
2022/01/02 10:06:48;;;;;;;5.00;2.40;;;;;;;13.90;48.70;101701.56;4993501;28;20034;-75
2022/01/02 10:09:31;;;;;;;14.77;3.70;;;;;;;13.95;48.59;101693.94;4993631;28;20022;-75
2022/01/02 10:12:19;;;;;;;4.88;2.28;;;;;;;13.94;48.88;101692.19;4994036;28;20022;-75
2022/01/02 10:14:44;;;;;;;8.07;3.08;;;;;;;14.00;48.70;101694.44;4993884;28;20388;-75
2022/01/02 10:17:09;;;;;;;29.20;6.72;;;;;;;13.89;48.35;101696.25;5003433;28;20078;-75
2022/01/02 10:19:38;;;;;;;34.38;5.43;;;;;;;13.82;48.06;101695.03;4994800;28;20026;-75
2022/01/02 10:22:06;;;;;;;7.47;4.00;;;;;;;13.71;48.23;101703.94;4993237;28;20089;-75
2022/01/02 10:24:33;;;;;;;6.95;3.25;;;;;;;13.60;48.51;101698.53;4993433;28;20053;-75
2022/01/02 10:27:17;;;;;;;9.80;4.07;;;;;;;13.42;48.35;101697.22;4993640;28;20088;-75
2022/01/02 10:29:45;;;;;;;22.73;7.00;;;;;;;13.37;49.06;101694.88;4993244;28;20025;-74
2022/01/02 10:32:38;;;;;;;12.32;3.72;;;;;;;13.38;49.46;101691.19;4993274;28;20026;-75
2022/01/02 10:35:08;;;;;;;4.15;2.40;;;;;;;13.35;49.19;101687.84;4981209;28;20030;-74
2022/01/02 10:37:33;;;;;;;41.72;9.98;;;;;;;13.47;49.66;101685.09;4993289;28;20392;-74
2022/01/02 10:39:59;;;;;;;20.85;4.18;;;;;;;13.51;49.25;101685.72;4993166;28;20026;-74
2022/01/02 10:42:24;;;;;;;12.80;4.50;;;;;;;13.56;49.37;101678.97;4993024;28;20517;-75
2022/01/02 10:44:50;;;;;;;15.73;4.07;;;;;;;13.60;49.07;101687.72;4993270;28;20499;-74
2022/01/02 10:47:24;;;;;;;29.73;4.30;;;;;;;13.49;48.92;101677.72;4993007;28;20037;-74
2022/01/02 10:49:54;;;;;;;7.40;2.88;;;;;;;13.44;49.03;101674.50;4993117;28;20101;-74
2022/01/02 10:52:36;;;;;;;27.33;4.55;;;;;;;13.31;49.67;101678.25;4993085;28;20046;-74
2022/01/02 10:55:18;;;;;;;10.27;3.35;;;;;;;13.26;49.95;101675.06;4993289;28;20030;-73
2022/01/02 10:57:51;;;;;;;5.85;2.20;;;;;;;13.21;49.45;101666.44;4993486;28;20033;-73
2022/01/02 11:00:19;;;;;;;11.68;2.72;;;;;;;13.19;50.13;101662.97;4993199;28;20034;-74
2022/01/02 11:02:46;;;;;;;9.65;3.55;;;;;;;13.23;50.04;101659.06;4993301;28;20072;-75
2022/01/02 11:05:14;;;;;;;8.88;3.58;;;;;;;13.30;50.07;101658.47;4992906;28;20022;-74
2022/01/02 11:07:47;;;;;;;14.30;3.95;;;;;;;13.37;49.97;101661.56;4993270;28;20452;-74
2022/01/02 11:10:16;;;;;;;7.18;3.17;;;;;;;13.38;49.94;101653.38;4993038;28;20033;-73
2022/01/02 11:12:43;;;;;;;15.23;3.67;;;;;;;13.38;49.65;101658.78;4993048;28;20018;-74
2022/01/02 11:15:15;;;;;;;13.07;3.35;;;;;;;13.55;49.87;101662.84;4993133;28;20119;-74
2022/01/02 11:17:41;;;;;;;;;;;;;;;13.70;49.30;101656.25;4993601;28;20023;-74
2022/01/02 11:20:10;;;;;;;6.25;2.65;;;;;;;13.79;49.22;101652.84;4993408;28;19983;-75
2022/01/02 11:22:47;;;;;;;11.82;4.10;;;;;;;13.91;48.88;101649.16;4993093;28;20510;-78